Bow Island Climate, Alberta

Past 24 Hour Conditions

This table is a summary of hourly weather conditions for the past 24 hours. This summary includes the following parameters: temperature, humidity, dew point, wind speed and direction, air pressure, visibility and/or wind chill and humidex.
Date / Time
(MDT)
Conditions Temp (°F) Humidity (%) Dew Point (°F) Wind (mph) Pressure (inches) Vis (mi) Humidex
28 July 2014
18:00 N/A 86 33 54 NE 5 N/A N/A 91
17:00 N/A 87 32 53 S 2 N/A N/A 91
16:00 N/A 90   23 47 S 5 N/A N/A 91
15:00 N/A 88 25 48 S 6 N/A N/A 90
14:00 N/A 85 34 53 SSW 3 N/A N/A 89
13:00 N/A 84 33 52 S 7 N/A N/A 87
12:00 N/A 81 40 55 S 6 N/A N/A 86
11:00 N/A 78 44 55 S 5 N/A N/A 83
10:00 N/A 73 50 54 SSE 9 N/A N/A 78
9:00 N/A 69 59 55 SSE 7 N/A N/A *
8:00 N/A 65 65 53 S 4 N/A N/A *
7:00 N/A 58 78 51 SSE 5 N/A N/A *
6:00 N/A 55   82 49 SSE 5 N/A N/A *
5:00 N/A 56 81 51 SSE 8 N/A N/A *
4:00 N/A 58 80 51 SSE 11 N/A N/A *
3:00 N/A 59 77 52 SSE 12 N/A N/A *
2:00 N/A 59 79 52 SSE 13 N/A N/A *
1:00 N/A 57 81 51 SE 10 N/A N/A *
00:00 N/A 58 84 53 ESE 7 N/A N/A *
27 July 2014
23:00 N/A 65 67 54 ESE 7 N/A N/A *
22:00 N/A 68 60 54 E 10 N/A N/A *
21:00 N/A 67 69 57 E 8 N/A N/A *
20:00 N/A 77 60 62 ENE 5 N/A N/A 86
19:00 N/A 81 44 57 NE 4 N/A N/A 87
18:00 N/A 84 27 47 SW 3 N/A N/A 85
N/A
Not available
 ↑ 
Highest temperature
 ↓ 
Lowest temperature
*
Value not significant.

If you require additional historical weather information, please visit Climate Data Online.